sensor_id;sensor_type;location;lat;lon;timestamp;temperature;humidity
65478;SHT31;53678;39.642;22.430;2022-12-07T00:00:30;11.92;95.18
65478;SHT31;53678;39.642;22.430;2022-12-07T00:02:55;11.87;95.56
65478;SHT31;53678;39.642;22.430;2022-12-07T00:05:21;11.94;95.29
65478;SHT31;53678;39.642;22.430;2022-12-07T00:07:47;11.94;95.06
65478;SHT31;53678;39.642;22.430;2022-12-07T00:10:13;12.01;94.88
65478;SHT31;53678;39.642;22.430;2022-12-07T00:12:39;12.04;94.94
65478;SHT31;53678;39.642;22.430;2022-12-07T00:15:05;12.08;94.80
65478;SHT31;53678;39.642;22.430;2022-12-07T00:17:31;12.11;94.22
65478;SHT31;53678;39.642;22.430;2022-12-07T00:19:59;12.14;94.16
65478;SHT31;53678;39.642;22.430;2022-12-07T00:22:25;12.18;94.28
65478;SHT31;53678;39.642;22.430;2022-12-07T00:24:51;12.19;94.11
65478;SHT31;53678;39.642;22.430;2022-12-07T00:27:16;12.25;94.03
65478;SHT31;53678;39.642;22.430;2022-12-07T00:29:42;12.29;93.97
65478;SHT31;53678;39.642;22.430;2022-12-07T00:32:08;12.39;93.88
65478;SHT31;53678;39.642;22.430;2022-12-07T00:34:34;12.39;93.51
65478;SHT31;53678;39.642;22.430;2022-12-07T00:37:00;12.39;93.39
65478;SHT31;53678;39.642;22.430;2022-12-07T00:39:26;12.39;93.12
65478;SHT31;53678;39.642;22.430;2022-12-07T00:41:52;12.39;93.04
65478;SHT31;53678;39.642;22.430;2022-12-07T00:44:18;12.43;93.07
65478;SHT31;53678;39.642;22.430;2022-12-07T00:46:44;12.43;92.80
65478;SHT31;53678;39.642;22.430;2022-12-07T00:49:11;12.45;92.58
65478;SHT31;53678;39.642;22.430;2022-12-07T00:51:36;12.45;92.50
65478;SHT31;53678;39.642;22.430;2022-12-07T00:54:02;12.47;92.48
65478;SHT31;53678;39.642;22.430;2022-12-07T00:56:29;12.42;92.36
65478;SHT31;53678;39.642;22.430;2022-12-07T00:59:03;12.36;92.64
65478;SHT31;53678;39.642;22.430;2022-12-07T01:01:32;12.28;92.94
65478;SHT31;53678;39.642;22.430;2022-12-07T01:03:59;12.30;93.05
65478;SHT31;53678;39.642;22.430;2022-12-07T01:06:27;12.32;92.96
65478;SHT31;53678;39.642;22.430;2022-12-07T01:08:54;12.28;93.15
65478;SHT31;53678;39.642;22.430;2022-12-07T01:11:23;12.24;93.43
65478;SHT31;53678;39.642;22.430;2022-12-07T01:13:51;12.22;93.47
65478;SHT31;53678;39.642;22.430;2022-12-07T01:16:18;12.22;93.57
65478;SHT31;53678;39.642;22.430;2022-12-07T01:18:49;12.14;94.05
65478;SHT31;53678;39.642;22.430;2022-12-07T01:21:19;12.12;94.22
65478;SHT31;53678;39.642;22.430;2022-12-07T01:23:46;12.16;94.31
65478;SHT31;53678;39.642;22.430;2022-12-07T01:26:15;12.22;94.09
65478;SHT31;53678;39.642;22.430;2022-12-07T01:28:41;12.22;93.84
65478;SHT31;53678;39.642;22.430;2022-12-07T01:31:13;12.18;93.88
65478;SHT31;53678;39.642;22.430;2022-12-07T01:33:41;12.16;94.03
65478;SHT31;53678;39.642;22.430;2022-12-07T01:36:28;12.22;94.27
65478;SHT31;53678;39.642;22.430;2022-12-07T01:38:56;12.24;93.98
65478;SHT31;53678;39.642;22.430;2022-12-07T01:41:24;12.26;93.66
65478;SHT31;53678;39.642;22.430;2022-12-07T01:46:35;12.29;93.55
65478;SHT31;53678;39.642;22.430;2022-12-07T01:49:01;12.30;93.61
65478;SHT31;53678;39.642;22.430;2022-12-07T01:51:29;12.35;93.56
65478;SHT31;53678;39.642;22.430;2022-12-07T01:53:55;12.39;93.40
65478;SHT31;53678;39.642;22.430;2022-12-07T01:56:25;12.42;93.31
65478;SHT31;53678;39.642;22.430;2022-12-07T01:58:52;12.45;93.20
65478;SHT31;53678;39.642;22.430;2022-12-07T02:01:20;12.52;93.25
65478;SHT31;53678;39.642;22.430;2022-12-07T02:03:46;12.53;93.07
65478;SHT31;53678;39.642;22.430;2022-12-07T02:06:17;12.56;92.93
65478;SHT31;53678;39.642;22.430;2022-12-07T02:08:45;12.53;92.66
65478;SHT31;53678;39.642;22.430;2022-12-07T02:11:12;12.55;92.72
65478;SHT31;53678;39.642;22.430;2022-12-07T02:13:40;12.55;92.76
65478;SHT31;53678;39.642;22.430;2022-12-07T02:16:20;12.60;92.82
65478;SHT31;53678;39.642;22.430;2022-12-07T02:29:27;12.70;91.77
65478;SHT31;53678;39.642;22.430;2022-12-07T02:42:43;12.64;92.03
65478;SHT31;53678;39.642;22.430;2022-12-07T02:45:13;12.59;92.29
65478;SHT31;53678;39.642;22.430;2022-12-07T02:47:41;12.53;92.54
65478;SHT31;53678;39.642;22.430;2022-12-07T02:50:07;12.49;92.84
65478;SHT31;53678;39.642;22.430;2022-12-07T02:52:34;12.45;92.85
65478;SHT31;53678;39.642;22.430;2022-12-07T02:54:59;12.46;93.11
65478;SHT31;53678;39.642;22.430;2022-12-07T02:57:39;12.32;93.44
65478;SHT31;53678;39.642;22.430;2022-12-07T03:00:09;12.25;94.22
65478;SHT31;53678;39.642;22.430;2022-12-07T03:10:54;12.15;95.18
65478;SHT31;53678;39.642;22.430;2022-12-07T03:16:23;12.22;95.00
65478;SHT31;53678;39.642;22.430;2022-12-07T03:18:55;12.22;94.83
65478;SHT31;53678;39.642;22.430;2022-12-07T03:21:26;12.25;94.61
65478;SHT31;53678;39.642;22.430;2022-12-07T03:23:56;12.28;94.91
65478;SHT31;53678;39.642;22.430;2022-12-07T03:26:30;12.33;94.70
65478;SHT31;53678;39.642;22.430;2022-12-07T03:28:58;12.33;94.33
65478;SHT31;53678;39.642;22.430;2022-12-07T03:31:30;12.32;94.10
65478;SHT31;53678;39.642;22.430;2022-12-07T03:34:31;12.28;93.97
65478;SHT31;53678;39.642;22.430;2022-12-07T03:37:12;12.32;93.91
65478;SHT31;53678;39.642;22.430;2022-12-07T03:39:46;12.32;93.93
65478;SHT31;53678;39.642;22.430;2022-12-07T03:42:16;12.29;93.85
65478;SHT31;53678;39.642;22.430;2022-12-07T03:44:42;12.36;93.94
65478;SHT31;53678;39.642;22.430;2022-12-07T03:47:34;12.39;93.88
65478;SHT31;53678;39.642;22.430;2022-12-07T03:50:37;12.39;94.22
65478;SHT31;53678;39.642;22.430;2022-12-07T03:53:04;12.32;94.68
65478;SHT31;53678;39.642;22.430;2022-12-07T03:55:36;12.35;95.07
65478;SHT31;53678;39.642;22.430;2022-12-07T03:58:07;12.30;95.23
65478;SHT31;53678;39.642;22.430;2022-12-07T04:00:34;12.32;95.44
65478;SHT31;53678;39.642;22.430;2022-12-07T04:03:00;12.30;95.39
65478;SHT31;53678;39.642;22.430;2022-12-07T04:05:27;12.30;95.29
65478;SHT31;53678;39.642;22.430;2022-12-07T04:07:53;12.32;95.02
65478;SHT31;53678;39.642;22.430;2022-12-07T04:10:19;12.30;94.89
65478;SHT31;53678;39.642;22.430;2022-12-07T04:12:45;12.29;94.88
65478;SHT31;53678;39.642;22.430;2022-12-07T04:15:11;12.40;94.40
65478;SHT31;53678;39.642;22.430;2022-12-07T04:17:37;12.40;94.41
65478;SHT31;53678;39.642;22.430;2022-12-07T04:20:04;12.39;94.62
65478;SHT31;53678;39.642;22.430;2022-12-07T04:22:31;12.47;94.21
65478;SHT31;53678;39.642;22.430;2022-12-07T04:24:57;12.56;94.09
65478;SHT31;53678;39.642;22.430;2022-12-07T04:27:22;12.47;94.21
65478;SHT31;53678;39.642;22.430;2022-12-07T04:29:48;12.55;94.59
65478;SHT31;53678;39.642;22.430;2022-12-07T04:32:14;12.49;94.21
65478;SHT31;53678;39.642;22.430;2022-12-07T04:34:40;12.53;94.38
65478;SHT31;53678;39.642;22.430;2022-12-07T04:37:06;12.55;94.34
65478;SHT31;53678;39.642;22.430;2022-12-07T04:39:33;12.53;94.55
65478;SHT31;53678;39.642;22.430;2022-12-07T04:41:59;12.47;94.59
65478;SHT31;53678;39.642;22.430;2022-12-07T04:44:26;12.42;94.29
65478;SHT31;53678;39.642;22.430;2022-12-07T04:46:53;12.49;94.46
65478;SHT31;53678;39.642;22.430;2022-12-07T04:49:20;12.52;94.11
65478;SHT31;53678;39.642;22.430;2022-12-07T04:51:47;12.46;94.19
65478;SHT31;53678;39.642;22.430;2022-12-07T04:54:14;12.42;94.50
65478;SHT31;53678;39.642;22.430;2022-12-07T04:56:41;12.29;95.32
65478;SHT31;53678;39.642;22.430;2022-12-07T04:59:09;12.22;96.13
65478;SHT31;53678;39.642;22.430;2022-12-07T05:01:35;12.04;96.56
65478;SHT31;53678;39.642;22.430;2022-12-07T05:04:02;11.97;96.61
65478;SHT31;53678;39.642;22.430;2022-12-07T05:06:29;11.95;96.73
65478;SHT31;53678;39.642;22.430;2022-12-07T05:08:55;11.98;96.69
65478;SHT31;53678;39.642;22.430;2022-12-07T05:11:21;12.02;96.66
65478;SHT31;53678;39.642;22.430;2022-12-07T05:14:19;12.05;96.47
65478;SHT31;53678;39.642;22.430;2022-12-07T05:16:48;12.06;96.34
65478;SHT31;53678;39.642;22.430;2022-12-07T05:19:15;12.05;96.37
65478;SHT31;53678;39.642;22.430;2022-12-07T05:21:41;12.01;96.34
65478;SHT31;53678;39.642;22.430;2022-12-07T05:24:09;12.05;96.28
65478;SHT31;53678;39.642;22.430;2022-12-07T05:26:35;12.06;96.34
65478;SHT31;53678;39.642;22.430;2022-12-07T05:29:02;12.08;96.29
65478;SHT31;53678;39.642;22.430;2022-12-07T05:31:28;12.12;96.20
65478;SHT31;53678;39.642;22.430;2022-12-07T05:33:54;12.14;96.11
65478;SHT31;53678;39.642;22.430;2022-12-07T05:36:22;12.12;96.18
65478;SHT31;53678;39.642;22.430;2022-12-07T05:38:48;12.16;96.08
65478;SHT31;53678;39.642;22.430;2022-12-07T05:41:16;12.32;96.08
65478;SHT31;53678;39.642;22.430;2022-12-07T05:44:01;12.32;95.27
65478;SHT31;53678;39.642;22.430;2022-12-07T05:46:27;12.30;95.27
65478;SHT31;53678;39.642;22.430;2022-12-07T05:48:52;12.26;95.45
65478;SHT31;53678;39.642;22.430;2022-12-07T05:51:19;12.28;95.85
65478;SHT31;53678;39.642;22.430;2022-12-07T05:53:45;12.29;95.78
65478;SHT31;53678;39.642;22.430;2022-12-07T05:56:13;12.15;96.10
65478;SHT31;53678;39.642;22.430;2022-12-07T05:58:39;12.16;96.19
65478;SHT31;53678;39.642;22.430;2022-12-07T06:01:23;12.15;96.38
65478;SHT31;53678;39.642;22.430;2022-12-07T06:03:49;12.16;96.44
65478;SHT31;53678;39.642;22.430;2022-12-07T06:06:15;12.16;96.53
65478;SHT31;53678;39.642;22.430;2022-12-07T06:08:41;12.16;96.25
65478;SHT31;53678;39.642;22.430;2022-12-07T06:11:07;12.16;96.27
65478;SHT31;53678;39.642;22.430;2022-12-07T06:13:52;12.04;96.38
65478;SHT31;53678;39.642;22.430;2022-12-07T06:16:18;12.08;96.49
65478;SHT31;53678;39.642;22.430;2022-12-07T06:18:44;12.04;96.45
65478;SHT31;53678;39.642;22.430;2022-12-07T06:21:10;12.09;96.54
65478;SHT31;53678;39.642;22.430;2022-12-07T06:23:36;12.09;96.53
65478;SHT31;53678;39.642;22.430;2022-12-07T06:26:02;12.08;96.50
65478;SHT31;53678;39.642;22.430;2022-12-07T06:28:28;12.05;96.50
65478;SHT31;53678;39.642;22.430;2022-12-07T06:31:01;12.06;96.47
65478;SHT31;53678;39.642;22.430;2022-12-07T06:33:28;12.05;96.31
65478;SHT31;53678;39.642;22.430;2022-12-07T06:35:54;12.09;96.21
65478;SHT31;53678;39.642;22.430;2022-12-07T06:38:20;12.16;95.93
65478;SHT31;53678;39.642;22.430;2022-12-07T06:40:47;12.19;95.50
65478;SHT31;53678;39.642;22.430;2022-12-07T06:43:16;12.21;95.34
65478;SHT31;53678;39.642;22.430;2022-12-07T06:45:43;12.24;95.47
65478;SHT31;53678;39.642;22.430;2022-12-07T06:48:10;12.25;95.59
65478;SHT31;53678;39.642;22.430;2022-12-07T06:50:36;12.29;95.52
65478;SHT31;53678;39.642;22.430;2022-12-07T06:53:02;12.29;95.46
65478;SHT31;53678;39.642;22.430;2022-12-07T06:55:30;12.22;95.32
65478;SHT31;53678;39.642;22.430;2022-12-07T06:57:56;12.22;95.17
65478;SHT31;53678;39.642;22.430;2022-12-07T07:00:23;12.21;95.50
65478;SHT31;53678;39.642;22.430;2022-12-07T07:02:49;12.22;95.66
65478;SHT31;53678;39.642;22.430;2022-12-07T07:05:15;12.18;95.65
65478;SHT31;53678;39.642;22.430;2022-12-07T07:07:43;12.25;95.93
65478;SHT31;53678;39.642;22.430;2022-12-07T07:10:09;12.22;96.10
65478;SHT31;53678;39.642;22.430;2022-12-07T07:12:36;12.11;96.14
65478;SHT31;53678;39.642;22.430;2022-12-07T07:15:02;12.08;96.13
65478;SHT31;53678;39.642;22.430;2022-12-07T07:17:28;11.98;96.36
65478;SHT31;53678;39.642;22.430;2022-12-07T07:19:54;12.08;96.52
65478;SHT31;53678;39.642;22.430;2022-12-07T07:22:20;12.08;96.32
65478;SHT31;53678;39.642;22.430;2022-12-07T07:24:46;12.02;96.35
65478;SHT31;53678;39.642;22.430;2022-12-07T07:27:12;12.09;96.23
65478;SHT31;53678;39.642;22.430;2022-12-07T07:29:38;12.01;96.18
65478;SHT31;53678;39.642;22.430;2022-12-07T07:32:04;12.04;96.23
65478;SHT31;53678;39.642;22.430;2022-12-07T07:34:30;11.89;96.12
65478;SHT31;53678;39.642;22.430;2022-12-07T07:37:00;11.88;96.49
65478;SHT31;53678;39.642;22.430;2022-12-07T07:39:26;12.01;96.53
65478;SHT31;53678;39.642;22.430;2022-12-07T07:41:52;11.99;96.42
65478;SHT31;53678;39.642;22.430;2022-12-07T07:44:25;11.91;96.39
65478;SHT31;53678;39.642;22.430;2022-12-07T07:46:51;12.01;96.27
65478;SHT31;53678;39.642;22.430;2022-12-07T07:49:17;12.06;96.07
65478;SHT31;53678;39.642;22.430;2022-12-07T07:51:43;12.49;95.89
65478;SHT31;53678;39.642;22.430;2022-12-07T07:54:08;12.11;95.18
65478;SHT31;53678;39.642;22.430;2022-12-07T07:56:34;12.14;95.51
65478;SHT31;53678;39.642;22.430;2022-12-07T07:59:02;12.25;95.94
65478;SHT31;53678;39.642;22.430;2022-12-07T08:01:28;12.50;95.85
65478;SHT31;53678;39.642;22.430;2022-12-07T08:03:54;12.32;95.36
65478;SHT31;53678;39.642;22.430;2022-12-07T08:06:20;12.14;95.48
65478;SHT31;53678;39.642;22.430;2022-12-07T08:08:45;12.05;95.82
65478;SHT31;53678;39.642;22.430;2022-12-07T08:11:13;12.01;95.96
65478;SHT31;53678;39.642;22.430;2022-12-07T08:13:38;12.11;96.06
65478;SHT31;53678;39.642;22.430;2022-12-07T08:16:06;12.01;95.71
65478;SHT31;53678;39.642;22.430;2022-12-07T08:18:38;12.18;96.09
65478;SHT31;53678;39.642;22.430;2022-12-07T08:21:05;12.24;95.94
65478;SHT31;53678;39.642;22.430;2022-12-07T08:23:32;12.37;95.99
65478;SHT31;53678;39.642;22.430;2022-12-07T08:26:03;12.39;95.81
65478;SHT31;53678;39.642;22.430;2022-12-07T08:28:30;12.30;95.83
65478;SHT31;53678;39.642;22.430;2022-12-07T08:31:08;12.39;95.35
65478;SHT31;53678;39.642;22.430;2022-12-07T08:33:36;12.42;95.13
65478;SHT31;53678;39.642;22.430;2022-12-07T08:36:08;12.28;95.76
65478;SHT31;53678;39.642;22.430;2022-12-07T08:38:35;12.43;95.66
65478;SHT31;53678;39.642;22.430;2022-12-07T08:41:01;12.50;95.07
65478;SHT31;53678;39.642;22.430;2022-12-07T08:43:27;12.33;95.29
65478;SHT31;53678;39.642;22.430;2022-12-07T08:48:32;12.30;94.94
65478;SHT31;53678;39.642;22.430;2022-12-07T08:51:01;12.57;94.92
65478;SHT31;53678;39.642;22.430;2022-12-07T08:53:29;12.45;94.76
65478;SHT31;53678;39.642;22.430;2022-12-07T08:55:56;12.53;95.02
65478;SHT31;53678;39.642;22.430;2022-12-07T08:58:24;12.63;94.74
65478;SHT31;53678;39.642;22.430;2022-12-07T09:00:50;12.81;94.38
65478;SHT31;53678;39.642;22.430;2022-12-07T09:03:16;12.80;93.57
65478;SHT31;53678;39.642;22.430;2022-12-07T09:05:42;12.84;93.44
65478;SHT31;53678;39.642;22.430;2022-12-07T09:08:08;12.67;93.81
65478;SHT31;53678;39.642;22.430;2022-12-07T09:10:34;12.59;95.13
65478;SHT31;53678;39.642;22.430;2022-12-07T09:13:01;12.57;95.52
65478;SHT31;53678;39.642;22.430;2022-12-07T09:15:30;12.52;95.41
65478;SHT31;53678;39.642;22.430;2022-12-07T09:17:56;12.40;95.74
65478;SHT31;53678;39.642;22.430;2022-12-07T09:20:22;12.59;96.00
65478;SHT31;53678;39.642;22.430;2022-12-07T09:22:49;12.66;95.53
65478;SHT31;53678;39.642;22.430;2022-12-07T09:25:15;12.47;94.94
65478;SHT31;53678;39.642;22.430;2022-12-07T09:27:41;12.35;95.00
65478;SHT31;53678;39.642;22.430;2022-12-07T09:30:07;12.55;95.05
65478;SHT31;53678;39.642;22.430;2022-12-07T09:32:34;12.60;94.29
65478;SHT31;53678;39.642;22.430;2022-12-07T09:35:02;13.01;94.60
65478;SHT31;53678;39.642;22.430;2022-12-07T09:37:28;13.86;94.21
65478;SHT31;53678;39.642;22.430;2022-12-07T09:39:54;14.01;91.92
65478;SHT31;53678;39.642;22.430;2022-12-07T09:42:34;14.07;90.55
65478;SHT31;53678;39.642;22.430;2022-12-07T09:45:02;14.76;89.37
65478;SHT31;53678;39.642;22.430;2022-12-07T09:47:30;14.68;89.51
65478;SHT31;53678;39.642;22.430;2022-12-07T09:50:05;14.57;89.96
65478;SHT31;53678;39.642;22.430;2022-12-07T09:52:32;14.59;89.28
65478;SHT31;53678;39.642;22.430;2022-12-07T09:54:59;14.44;88.24
65478;SHT31;53678;39.642;22.430;2022-12-07T09:57:29;14.20;89.80
65478;SHT31;53678;39.642;22.430;2022-12-07T10:00:01;14.07;88.78
65478;SHT31;53678;39.642;22.430;2022-12-07T10:02:38;13.77;89.44
65478;SHT31;53678;39.642;22.430;2022-12-07T10:05:13;13.41;91.95
65478;SHT31;53678;39.642;22.430;2022-12-07T10:07:40;13.43;91.63
65478;SHT31;53678;39.642;22.430;2022-12-07T10:10:15;13.39;91.95
65478;SHT31;53678;39.642;22.430;2022-12-07T10:13:03;13.21;92.34
65478;SHT31;53678;39.642;22.430;2022-12-07T10:16:02;13.41;92.51
65478;SHT31;53678;39.642;22.430;2022-12-07T10:18:38;13.24;92.64
65478;SHT31;53678;39.642;22.430;2022-12-07T10:21:19;13.59;91.08
65478;SHT31;53678;39.642;22.430;2022-12-07T10:24:03;13.76;91.03
65478;SHT31;53678;39.642;22.430;2022-12-07T10:26:51;13.31;91.98
65478;SHT31;53678;39.642;22.430;2022-12-07T10:29:29;13.45;92.41
65478;SHT31;53678;39.642;22.430;2022-12-07T10:32:39;13.70;91.68
65478;SHT31;53678;39.642;22.430;2022-12-07T10:34:46;13.26;92.08
65478;SHT31;53678;39.642;22.430;2022-12-07T10:37:18;12.98;92.68
65478;SHT31;53678;39.642;22.430;2022-12-07T10:39:51;13.18;93.19
65478;SHT31;53678;39.642;22.430;2022-12-07T10:42:29;13.24;92.92
65478;SHT31;53678;39.642;22.430;2022-12-07T10:45:13;13.25;92.89
65478;SHT31;53678;39.642;22.430;2022-12-07T10:47:59;13.00;93.78
65478;SHT31;53678;39.642;22.430;2022-12-07T11:02:06;13.15;92.04
65478;SHT31;53678;39.642;22.430;2022-12-07T11:10:32;13.32;93.01
65478;SHT31;53678;39.642;22.430;2022-12-07T11:12:58;13.46;91.94
65478;SHT31;53678;39.642;22.430;2022-12-07T11:15:35;13.52;92.65
65478;SHT31;53678;39.642;22.430;2022-12-07T11:24:44;13.87;90.62
65478;SHT31;53678;39.642;22.430;2022-12-07T11:30:33;14.03;90.90
65478;SHT31;53678;39.642;22.430;2022-12-07T11:33:10;14.07;89.86
65478;SHT31;53678;39.642;22.430;2022-12-07T11:38:51;13.70;90.93
65478;SHT31;53678;39.642;22.430;2022-12-07T11:41:32;13.63;91.33
65478;SHT31;53678;39.642;22.430;2022-12-07T11:44:22;13.76;91.57
65478;SHT31;53678;39.642;22.430;2022-12-07T11:47:17;13.99;90.54
65478;SHT31;53678;39.642;22.430;2022-12-07T11:49:54;14.25;90.17
65478;SHT31;53678;39.642;22.430;2022-12-07T11:55:46;14.46;89.31
65478;SHT31;53678;39.642;22.430;2022-12-07T11:58:42;14.55;88.82
65478;SHT31;53678;39.642;22.430;2022-12-07T12:06:43;14.25;89.14
65478;SHT31;53678;39.642;22.430;2022-12-07T12:09:17;14.28;88.77
65478;SHT31;53678;39.642;22.430;2022-12-07T12:14:40;14.35;88.31
65478;SHT31;53678;39.642;22.430;2022-12-07T12:20:32;14.28;88.84
65478;SHT31;53678;39.642;22.430;2022-12-07T12:23:11;14.34;89.18
65478;SHT31;53678;39.642;22.430;2022-12-07T12:25:45;14.30;89.07
65478;SHT31;53678;39.642;22.430;2022-12-07T12:28:24;14.31;89.04
65478;SHT31;53678;39.642;22.430;2022-12-07T12:31:10;14.31;88.57
65478;SHT31;53678;39.642;22.430;2022-12-07T12:33:44;14.28;88.74
65478;SHT31;53678;39.642;22.430;2022-12-07T12:38:51;14.31;88.85
65478;SHT31;53678;39.642;22.430;2022-12-07T12:47:51;14.09;88.94
65478;SHT31;53678;39.642;22.430;2022-12-07T12:50:23;13.86;89.72
65478;SHT31;53678;39.642;22.430;2022-12-07T12:52:57;13.94;90.00
65478;SHT31;53678;39.642;22.430;2022-12-07T13:01:30;14.14;89.27
65478;SHT31;53678;39.642;22.430;2022-12-07T13:03:34;13.94;89.50
65478;SHT31;53678;39.642;22.430;2022-12-07T13:06:41;13.91;89.28
65478;SHT31;53678;39.642;22.430;2022-12-07T13:09:19;14.00;89.52
65478;SHT31;53678;39.642;22.430;2022-12-07T13:11:47;14.09;88.74
65478;SHT31;53678;39.642;22.430;2022-12-07T13:17:11;13.83;90.05
65478;SHT31;53678;39.642;22.430;2022-12-07T13:27:50;13.77;89.55
65478;SHT31;53678;39.642;22.430;2022-12-07T13:30:20;13.80;90.22
65478;SHT31;53678;39.642;22.430;2022-12-07T13:32:57;13.80;89.42
65478;SHT31;53678;39.642;22.430;2022-12-07T13:35:31;14.10;89.14
65478;SHT31;53678;39.642;22.430;2022-12-07T13:38:00;13.89;88.82
65478;SHT31;53678;39.642;22.430;2022-12-07T13:40:27;13.97;89.40
65478;SHT31;53678;39.642;22.430;2022-12-07T13:43:04;14.06;88.79
65478;SHT31;53678;39.642;22.430;2022-12-07T13:45:32;14.03;88.73
65478;SHT31;53678;39.642;22.430;2022-12-07T13:48:32;14.11;88.46
65478;SHT31;53678;39.642;22.430;2022-12-07T13:51:01;14.11;88.71
65478;SHT31;53678;39.642;22.430;2022-12-07T13:53:28;14.11;88.66
65478;SHT31;53678;39.642;22.430;2022-12-07T13:56:02;14.14;88.61
65478;SHT31;53678;39.642;22.430;2022-12-07T13:58:30;14.11;89.23
65478;SHT31;53678;39.642;22.430;2022-12-07T14:00:57;14.07;89.18
65478;SHT31;53678;39.642;22.430;2022-12-07T14:03:32;14.13;88.90
65478;SHT31;53678;39.642;22.430;2022-12-07T14:08:34;14.20;89.31
65478;SHT31;53678;39.642;22.430;2022-12-07T14:11:03;14.20;88.76
65478;SHT31;53678;39.642;22.430;2022-12-07T14:13:34;13.97;89.37
65478;SHT31;53678;39.642;22.430;2022-12-07T14:16:01;13.87;90.36
65478;SHT31;53678;39.642;22.430;2022-12-07T14:18:30;13.84;90.50
65478;SHT31;53678;39.642;22.430;2022-12-07T14:21:20;13.93;90.01
65478;SHT31;53678;39.642;22.430;2022-12-07T14:24:22;13.93;89.90
65478;SHT31;53678;39.642;22.430;2022-12-07T14:26:50;13.99;89.89
65478;SHT31;53678;39.642;22.430;2022-12-07T14:31:52;14.00;89.18
65478;SHT31;53678;39.642;22.430;2022-12-07T14:34:22;14.07;89.21
65478;SHT31;53678;39.642;22.430;2022-12-07T14:36:49;14.03;89.16
65478;SHT31;53678;39.642;22.430;2022-12-07T14:39:15;14.06;89.01
65478;SHT31;53678;39.642;22.430;2022-12-07T14:41:41;14.04;88.64
65478;SHT31;53678;39.642;22.430;2022-12-07T14:44:16;14.10;88.61
65478;SHT31;53678;39.642;22.430;2022-12-07T14:46:43;14.03;88.43
65478;SHT31;53678;39.642;22.430;2022-12-07T14:49:08;13.94;89.01
65478;SHT31;53678;39.642;22.430;2022-12-07T14:51:36;13.84;89.73
65478;SHT31;53678;39.642;22.430;2022-12-07T14:54:06;13.86;89.81
65478;SHT31;53678;39.642;22.430;2022-12-07T14:56:36;13.84;89.69
65478;SHT31;53678;39.642;22.430;2022-12-07T14:59:04;13.89;89.88
65478;SHT31;53678;39.642;22.430;2022-12-07T15:01:30;13.84;89.66
65478;SHT31;53678;39.642;22.430;2022-12-07T15:04:14;13.82;89.62
65478;SHT31;53678;39.642;22.430;2022-12-07T15:06:40;13.79;89.85
65478;SHT31;53678;39.642;22.430;2022-12-07T15:09:27;13.73;89.84
65478;SHT31;53678;39.642;22.430;2022-12-07T15:11:56;13.66;90.12
65478;SHT31;53678;39.642;22.430;2022-12-07T15:14:22;13.65;90.25
65478;SHT31;53678;39.642;22.430;2022-12-07T15:16:48;13.65;90.33
65478;SHT31;53678;39.642;22.430;2022-12-07T15:19:16;13.67;90.53
65478;SHT31;53678;39.642;22.430;2022-12-07T15:21:44;13.66;90.64
65478;SHT31;53678;39.642;22.430;2022-12-07T15:24:11;13.67;90.74
65478;SHT31;53678;39.642;22.430;2022-12-07T15:26:38;13.79;90.97
65478;SHT31;53678;39.642;22.430;2022-12-07T15:29:04;13.76;90.93
65478;SHT31;53678;39.642;22.430;2022-12-07T15:31:30;13.67;90.68
65478;SHT31;53678;39.642;22.430;2022-12-07T15:33:56;13.62;91.16
65478;SHT31;53678;39.642;22.430;2022-12-07T15:36:24;13.65;91.40
65478;SHT31;53678;39.642;22.430;2022-12-07T15:38:51;13.65;91.52
65478;SHT31;53678;39.642;22.430;2022-12-07T15:41:17;13.65;91.25
65478;SHT31;53678;39.642;22.430;2022-12-07T15:43:43;13.66;91.00
65478;SHT31;53678;39.642;22.430;2022-12-07T15:46:36;13.65;91.43
65478;SHT31;53678;39.642;22.430;2022-12-07T15:49:04;13.69;91.55
65478;SHT31;53678;39.642;22.430;2022-12-07T15:51:30;13.66;91.48
65478;SHT31;53678;39.642;22.430;2022-12-07T15:53:57;13.66;91.61
65478;SHT31;53678;39.642;22.430;2022-12-07T15:56:24;13.61;91.96
65478;SHT31;53678;39.642;22.430;2022-12-07T15:58:50;13.62;91.97
65478;SHT31;53678;39.642;22.430;2022-12-07T16:01:17;13.61;92.27
65478;SHT31;53678;39.642;22.430;2022-12-07T16:03:44;13.53;92.49
65478;SHT31;53678;39.642;22.430;2022-12-07T16:06:10;13.41;92.49
65478;SHT31;53678;39.642;22.430;2022-12-07T16:08:42;13.26;92.91
65478;SHT31;53678;39.642;22.430;2022-12-07T16:11:10;13.26;93.07
65478;SHT31;53678;39.642;22.430;2022-12-07T16:13:35;13.34;93.24
65478;SHT31;53678;39.642;22.430;2022-12-07T16:16:04;13.31;92.89
65478;SHT31;53678;39.642;22.430;2022-12-07T16:18:30;13.34;93.06
65478;SHT31;53678;39.642;22.430;2022-12-07T16:20:56;13.39;93.02
65478;SHT31;53678;39.642;22.430;2022-12-07T16:23:22;13.45;92.78
65478;SHT31;53678;39.642;22.430;2022-12-07T16:25:47;13.46;92.36
65478;SHT31;53678;39.642;22.430;2022-12-07T16:28:13;13.43;92.55
65478;SHT31;53678;39.642;22.430;2022-12-07T16:30:39;13.43;92.53
65478;SHT31;53678;39.642;22.430;2022-12-07T16:33:05;13.41;92.62
65478;SHT31;53678;39.642;22.430;2022-12-07T16:35:31;13.46;92.72
65478;SHT31;53678;39.642;22.430;2022-12-07T16:37:57;13.46;92.59
65478;SHT31;53678;39.642;22.430;2022-12-07T16:40:23;13.49;92.26
65478;SHT31;53678;39.642;22.430;2022-12-07T16:42:49;13.46;92.26
65478;SHT31;53678;39.642;22.430;2022-12-07T16:45:15;13.39;92.37
65478;SHT31;53678;39.642;22.430;2022-12-07T16:47:40;13.36;92.60
65478;SHT31;53678;39.642;22.430;2022-12-07T16:50:07;13.38;92.81
65478;SHT31;53678;39.642;22.430;2022-12-07T16:52:33;13.36;92.60
65478;SHT31;53678;39.642;22.430;2022-12-07T16:54:59;13.28;92.57
65478;SHT31;53678;39.642;22.430;2022-12-07T16:57:25;13.24;92.73
65478;SHT31;53678;39.642;22.430;2022-12-07T16:59:51;13.19;92.85
65478;SHT31;53678;39.642;22.430;2022-12-07T17:02:18;13.15;92.94
65478;SHT31;53678;39.642;22.430;2022-12-07T17:04:44;13.12;93.03
65478;SHT31;53678;39.642;22.430;2022-12-07T17:07:10;13.16;92.98
65478;SHT31;53678;39.642;22.430;2022-12-07T17:09:36;13.14;92.77
65478;SHT31;53678;39.642;22.430;2022-12-07T17:12:02;13.12;92.96
65478;SHT31;53678;39.642;22.430;2022-12-07T17:14:28;13.08;93.10
65478;SHT31;53678;39.642;22.430;2022-12-07T17:17:13;13.05;92.94
65478;SHT31;53678;39.642;22.430;2022-12-07T17:19:39;13.05;93.01
65478;SHT31;53678;39.642;22.430;2022-12-07T17:22:05;13.05;92.99
65478;SHT31;53678;39.642;22.430;2022-12-07T17:24:31;13.03;92.85